Time;durP1;ratioP1;P1;durP2;ratioP2;P2;SDS_P1;SDS_P2;PMS_P1;PMS_P2;Temp;Humidity;BMP_temperature;BMP_pressure;BME280_temperature;BME280_humidity;BME280_pressure;Samples;Min_cycle;Max_cycle;Signal;HPM_P1;HPM_P2
2023/03/31 00:02:00;;;;;;;5.03;2.10;;;;;;;;;;5050474;28;20185;-76
2023/03/31 00:04:26;;;;;;;4.40;1.80;;;;;;;;;;5044369;28;20242;-76
2023/03/31 00:06:53;;;;;;;6.53;1.70;;;;;;;;;;5080431;28;20185;-76
2023/03/31 00:09:20;;;;;;;7.40;1.77;;;;;;;;;;5051439;28;20204;-76
2023/03/31 00:11:46;;;;;;;9.37;2.50;;;;;;;;;;5050349;28;20171;-76
2023/03/31 00:14:11;;;;;;;6.67;2.07;;;;;;;;;;5049521;28;20173;-76
2023/03/31 00:16:37;;;;;;;10.33;2.37;;;;;;;;;;5074837;28;20176;-76
2023/03/31 00:19:02;;;;;;;8.73;2.30;;;;;;;;;;5045665;28;20236;-76
2023/03/31 00:21:32;;;;;;;3.90;2.17;;;;;;;;;;5050549;28;20176;-76
2023/03/31 00:23:59;;;;;;;10.17;2.63;;;;;;;;;;5049470;28;20262;-76
2023/03/31 00:26:25;;;;;;;3.37;2.03;;;;;;;;;;5083237;28;20212;-76
2023/03/31 00:28:50;;;;;;;4.97;2.10;;;;;;;;;;5074382;28;20222;-76
2023/03/31 00:31:16;;;;;;;6.87;2.10;;;;;;;;;;5043504;28;20205;-76
2023/03/31 00:33:41;;;;;;;5.97;1.93;;;;;;;;;;5073625;28;20165;-76
2023/03/31 00:36:07;;;;;;;8.93;2.20;;;;;;;;;;5073810;28;20182;-76
2023/03/31 00:38:32;;;;;;;8.70;1.70;;;;;;;;;;5072709;28;20179;-76
2023/03/31 00:40:58;;;;;;;6.07;1.80;;;;;;;;;;5037610;28;20186;-76
2023/03/31 00:43:27;;;;;;;6.37;2.00;;;;;;;;;;5048645;28;20290;-76
2023/03/31 00:45:53;;;;;;;4.87;1.90;;;;;;;;;;5044311;28;20176;-76
2023/03/31 00:48:23;;;;;;;5.33;1.90;;;;;;;;;;5040039;28;20277;-76
2023/03/31 00:50:51;;;;;;;10.60;1.87;;;;;;;;;;5068610;28;20266;-76
2023/03/31 00:53:20;;;;;;;7.07;2.53;;;;;;;;;;5039890;28;20169;-76
2023/03/31 00:55:49;;;;;;;4.53;2.23;;;;;;;;;;5041514;28;20183;-76
2023/03/31 00:58:18;;;;;;;5.53;1.90;;;;;;;;;;5048763;28;20208;-76
2023/03/31 01:00:44;;;;;;;8.40;2.27;;;;;;;;;;5055797;28;20172;-76
2023/03/31 01:03:09;;;;;;;7.07;2.10;;;;;;;;;;5045770;28;20190;-76
2023/03/31 01:05:55;;;;;;;3.87;1.90;;;;;;;;;;5066578;28;20187;-76
2023/03/31 01:08:23;;;;;;;3.67;1.77;;;;;;;;;;5073109;28;20194;-76
2023/03/31 01:10:50;;;;;;;6.67;2.27;;;;;;;;;;5050375;28;20214;-76
2023/03/31 01:13:16;;;;;;;5.57;1.70;;;;;;;;;;5073888;28;20205;-76
2023/03/31 01:15:42;;;;;;;4.20;2.27;;;;;;;;;;5051214;28;20215;-76
2023/03/31 01:18:09;;;;;;;8.20;2.40;;;;;;;;;;5047674;28;20235;-76
2023/03/31 01:20:40;;;;;;;4.13;1.83;;;;;;;;;;5064827;28;20187;-76
2023/03/31 01:23:11;;;;;;;4.07;2.00;;;;;;;;;;5048610;28;20207;-76
2023/03/31 01:26:15;;;;;;;4.63;2.10;;;;;;;;;;5044665;28;20174;-76
2023/03/31 01:28:47;;;;;;;4.37;1.93;;;;;;;;;;5003811;28;20192;-76
2023/03/31 01:31:12;;;;;;;3.27;2.20;;;;;;;;;;5001341;28;20230;-76
2023/03/31 01:33:46;;;;;;;8.10;2.37;;;;;;;;;;4984646;28;20209;-76
2023/03/31 01:36:14;;;;;;;4.00;2.10;;;;;;;;;;4990050;28;20259;-76
2023/03/31 01:39:00;;;;;;;3.50;1.70;;;;;;;;;;5005954;28;20229;-76
2023/03/31 01:41:45;;;;;;;5.73;2.20;;;;;;;;;;5003149;28;20190;-76
2023/03/31 01:44:29;;;;;;;3.63;2.47;;;;;;;;;;4975305;28;20275;-76
2023/03/31 01:47:08;;;;;;;4.97;2.07;;;;;;;;;;5003041;28;20240;-76
2023/03/31 01:49:38;;;;;;;4.40;2.27;;;;;;;;;;4992650;28;20224;-76
2023/03/31 01:52:16;;;;;;;3.43;1.97;;;;;;;;;;4997403;28;20251;-76
2023/03/31 01:54:49;;;;;;;4.53;1.87;;;;;;;;;;4991862;28;20183;-76
2023/03/31 01:57:17;;;;;;;4.87;1.70;;;;;;;;;;5002940;28;20188;-76
2023/03/31 01:59:48;;;;;;;2.73;1.80;;;;;;;;;;5025926;28;20228;-76
2023/03/31 02:02:21;;;;;;;4.77;2.17;;;;;;;;;;5046678;28;20203;-76
2023/03/31 02:04:51;;;;;;;2.03;1.80;;;;;;;;;;5076288;28;20185;-76
2023/03/31 02:07:20;;;;;;;4.87;2.33;;;;;;;;;;5067436;28;20171;-76
2023/03/31 02:09:48;;;;;;;3.60;2.10;;;;;;;;;;5072008;28;20214;-76
2023/03/31 02:12:15;;;;;;;4.47;2.10;;;;;;;;;;5047297;28;20201;-76
2023/03/31 02:14:42;;;;;;;2.33;1.60;;;;;;;;;;5045354;28;20210;-76
2023/03/31 02:17:13;;;;;;;3.07;2.10;;;;;;;;;;5066563;28;20194;-76
2023/03/31 02:19:39;;;;;;;4.20;2.30;;;;;;;;;;5052799;28;20206;-76
2023/03/31 02:22:06;;;;;;;3.03;2.03;;;;;;;;;;5043007;28;20176;-76
2023/03/31 02:24:31;;;;;;;3.70;2.03;;;;;;;;;;5045089;28;20198;-76
2023/03/31 02:27:02;;;;;;;4.10;2.07;;;;;;;;;;5046022;28;20194;-76
2023/03/31 02:29:28;;;;;;;3.60;2.37;;;;;;;;;;5042562;28;20202;-76
2023/03/31 02:32:04;;;;;;;8.63;2.43;;;;;;;;;;5072416;28;20197;-76
2023/03/31 02:34:29;;;;;;;3.63;2.20;;;;;;;;;;5049780;28;20184;-76
2023/03/31 02:36:55;;;;;;;6.30;2.90;;;;;;;;;;5046592;28;20257;-76
2023/03/31 02:39:23;;;;;;;3.43;2.33;;;;;;;;;;5046515;28;20210;-76
2023/03/31 02:41:49;;;;;;;6.53;2.70;;;;;;;;;;5045278;28;20180;-76
2023/03/31 02:44:15;;;;;;;5.87;2.60;;;;;;;;;;5078899;28;20241;-76
2023/03/31 02:46:40;;;;;;;5.20;2.40;;;;;;;;;;5074191;28;20230;-76
2023/03/31 02:49:07;;;;;;;4.77;2.10;;;;;;;;;;5046426;28;20250;-76
2023/03/31 02:51:38;;;;;;;5.47;2.13;;;;;;;;;;5054958;28;20176;-76
2023/03/31 02:54:18;;;;;;;4.67;2.80;;;;;;;;;;5073874;28;20271;-76
2023/03/31 02:56:52;;;;;;;6.40;3.33;;;;;;;;;;5047210;28;20181;-76
2023/03/31 02:59:20;;;;;;;4.80;2.53;;;;;;;;;;5042234;28;20286;-76
2023/03/31 03:01:58;;;;;;;5.93;2.77;;;;;;;;;;5048725;28;20177;-76
2023/03/31 03:04:50;;;;;;;5.77;3.00;;;;;;;;;;5078442;28;20180;-76
2023/03/31 03:07:25;;;;;;;4.93;2.70;;;;;;;;;;5078050;28;20184;-76
2023/03/31 03:09:56;;;;;;;4.93;2.93;;;;;;;;;;5080585;28;20190;-76
2023/03/31 03:12:31;;;;;;;4.93;2.97;;;;;;;;;;5047395;28;20186;-76
2023/03/31 03:15:11;;;;;;;4.87;2.60;;;;;;;;;;5049733;28;20170;-76
2023/03/31 03:17:40;;;;;;;3.43;2.83;;;;;;;;;;5070176;28;20278;-76
2023/03/31 03:20:09;;;;;;;5.97;3.20;;;;;;;;;;5049571;28;20186;-76
2023/03/31 03:22:36;;;;;;;3.30;2.77;;;;;;;;;;5055630;28;20175;-76
2023/03/31 03:25:01;;;;;;;6.27;2.70;;;;;;;;;;5048806;28;20409;-76
2023/03/31 03:27:27;;;;;;;5.50;3.83;;;;;;;;;;5044748;28;20266;-76
2023/03/31 03:29:52;;;;;;;6.50;2.73;;;;;;;;;;5075561;28;20276;-76
2023/03/31 03:32:17;;;;;;;3.70;2.70;;;;;;;;;;5047864;28;20179;-76
2023/03/31 03:34:42;;;;;;;6.70;3.33;;;;;;;;;;5049438;28;20198;-76
2023/03/31 03:37:08;;;;;;;3.93;2.63;;;;;;;;;;5071868;28;20202;-76
2023/03/31 03:39:33;;;;;;;7.73;3.43;;;;;;;;;;5049524;28;20186;-75
2023/03/31 03:41:58;;;;;;;8.10;3.30;;;;;;;;;;5070400;28;20215;-76
2023/03/31 03:44:24;;;;;;;5.70;3.27;;;;;;;;;;5052841;28;20184;-76
2023/03/31 03:46:49;;;;;;;4.67;3.73;;;;;;;;;;5046774;28;20178;-76
2023/03/31 03:49:14;;;;;;;5.43;3.20;;;;;;;;;;5073440;28;20290;-76
2023/03/31 03:51:40;;;;;;;4.93;2.87;;;;;;;;;;5048484;28;20238;-76
2023/03/31 03:54:05;;;;;;;4.33;3.20;;;;;;;;;;5078592;28;20171;-76
2023/03/31 03:56:30;;;;;;;5.00;3.37;;;;;;;;;;5076270;28;20201;-76
2023/03/31 03:58:56;;;;;;;5.87;3.07;;;;;;;;;;5083531;28;20180;-76
2023/03/31 04:01:21;;;;;;;4.10;3.23;;;;;;;;;;5043213;28;20201;-76
2023/03/31 04:03:46;;;;;;;5.83;3.03;;;;;;;;;;5074189;28;20174;-76
2023/03/31 04:06:12;;;;;;;6.30;3.50;;;;;;;;;;5079396;28;20181;-75
2023/03/31 04:08:37;;;;;;;5.67;3.37;;;;;;;;;;5062478;28;20182;-76
2023/03/31 04:11:02;;;;;;;5.80;3.57;;;;;;;;;;5046038;28;20246;-75
2023/03/31 04:13:28;;;;;;;6.03;3.67;;;;;;;;;;5082761;28;20181;-76
2023/03/31 04:15:53;;;;;;;10.00;4.23;;;;;;;;;;5044805;28;20200;-76
2023/03/31 04:18:24;;;;;;;5.37;4.20;;;;;;;;;;5053129;28;20170;-76
2023/03/31 04:21:02;;;;;;;9.57;4.40;;;;;;;;;;5046871;28;20182;-76
2023/03/31 04:23:28;;;;;;;9.73;4.63;;;;;;;;;;5048341;28;20178;-76
2023/03/31 04:25:53;;;;;;;14.83;11.50;;;;;;;;;;5042903;28;20183;-75
2023/03/31 04:28:18;;;;;;;7.97;5.07;;;;;;;;;;5046208;28;20181;-76
2023/03/31 04:30:44;;;;;;;9.40;6.10;;;;;;;;;;5052074;28;20199;-76
2023/03/31 04:33:09;;;;;;;6.33;5.73;;;;;;;;;;5045961;28;20170;-75
2023/03/31 04:35:51;;;;;;;6.47;5.30;;;;;;;;;;5050917;28;20170;-75
2023/03/31 04:38:22;;;;;;;5.90;4.73;;;;;;;;;;5050365;28;20178;-75
2023/03/31 04:40:48;;;;;;;8.73;4.50;;;;;;;;;;5072005;28;20175;-75
2023/03/31 04:43:14;;;;;;;6.80;5.20;;;;;;;;;;5073938;28;20199;-76
2023/03/31 04:45:39;;;;;;;8.23;5.23;;;;;;;;;;5066746;28;20196;-76
2023/03/31 04:48:05;;;;;;;8.23;5.07;;;;;;;;;;5075536;28;20235;-76
2023/03/31 04:50:31;;;;;;;10.77;5.30;;;;;;;;;;5051013;28;20208;-75
2023/03/31 04:52:56;;;;;;;7.53;5.10;;;;;;;;;;5047748;28;20189;-75
2023/03/31 04:55:22;;;;;;;10.80;5.80;;;;;;;;;;5047605;28;20178;-76
2023/03/31 04:57:47;;;;;;;7.20;5.40;;;;;;;;;;5044197;28;20181;-75
2023/03/31 05:00:13;;;;;;;6.90;5.10;;;;;;;;;;5040564;28;20229;-76
2023/03/31 05:02:38;;;;;;;9.27;5.37;;;;;;;;;;5042782;28;20202;-75
2023/03/31 05:05:03;;;;;;;9.23;5.63;;;;;;;;;;5042868;28;20179;-75
2023/03/31 05:07:28;;;;;;;8.93;5.30;;;;;;;;;;5050371;28;20179;-75
2023/03/31 05:09:54;;;;;;;12.10;5.80;;;;;;;;;;5048750;28;20187;-76
2023/03/31 05:12:19;;;;;;;8.23;5.27;;;;;;;;;;5075961;28;20174;-75
2023/03/31 05:14:44;;;;;;;10.40;5.30;;;;;;;;;;5049597;28;20187;-76
2023/03/31 05:17:10;;;;;;;8.10;6.60;;;;;;;;;;5047449;28;20185;-76
2023/03/31 05:19:35;;;;;;;12.30;7.63;;;;;;;;;;5048158;28;20178;-76
2023/03/31 05:22:00;;;;;;;9.07;7.27;;;;;;;;;;5071637;28;20220;-76
2023/03/31 05:24:27;;;;;;;5.50;4.83;;;;;;;;;;5046143;28;20308;-76
2023/03/31 05:26:53;;;;;;;11.23;5.83;;;;;;;;;;5062254;28;20182;-76
2023/03/31 05:29:18;;;;;;;9.17;5.00;;;;;;;;;;5042647;28;20183;-76
2023/03/31 05:31:44;;;;;;;9.93;5.33;;;;;;;;;;5047121;28;20179;-76
2023/03/31 05:34:09;;;;;;;7.87;4.80;;;;;;;;;;5067443;28;20173;-75
2023/03/31 05:36:38;;;;;;;13.77;8.30;;;;;;;;;;5042251;28;20191;-75
2023/03/31 05:39:07;;;;;;;7.50;4.80;;;;;;;;;;5045555;28;20185;-76
2023/03/31 05:41:33;;;;;;;8.20;6.00;;;;;;;;;;5046091;28;20227;-75
2023/03/31 05:43:58;;;;;;;8.37;5.67;;;;;;;;;;5045082;28;20198;-76
2023/03/31 05:46:24;;;;;;;14.57;11.23;;;;;;;;;;5048616;28;20229;-76
2023/03/31 05:48:49;;;;;;;7.53;5.07;;;;;;;;;;5075790;28;20222;-76
2023/03/31 05:51:14;;;;;;;8.17;7.00;;;;;;;;;;5038997;28;20221;-76
2023/03/31 05:53:40;;;;;;;10.70;5.80;;;;;;;;;;5061859;28;20265;-76
2023/03/31 05:56:06;;;;;;;11.70;6.03;;;;;;;;;;5066672;28;20170;-75
2023/03/31 05:58:35;;;;;;;8.63;5.67;;;;;;;;;;5044047;28;20224;-75
2023/03/31 06:01:01;;;;;;;6.63;5.47;;;;;;;;;;5045024;28;20185;-76
2023/03/31 06:03:26;;;;;;;8.53;6.27;;;;;;;;;;5075028;28;20199;-76
2023/03/31 06:05:52;;;;;;;6.80;4.90;;;;;;;;;;5078801;28;20187;-76
2023/03/31 06:08:18;;;;;;;9.67;7.53;;;;;;;;;;5044110;28;20183;-76
2023/03/31 06:10:43;;;;;;;12.30;8.83;;;;;;;;;;5057801;28;20210;-76
2023/03/31 06:13:08;;;;;;;7.10;5.73;;;;;;;;;;5074648;28;20213;-76
2023/03/31 06:15:33;;;;;;;8.07;6.47;;;;;;;;;;5048476;28;20186;-76
2023/03/31 06:17:59;;;;;;;10.33;7.97;;;;;;;;;;5043364;28;20239;-76
2023/03/31 06:20:24;;;;;;;9.03;6.00;;;;;;;;;;5048816;28;20255;-76
2023/03/31 06:22:49;;;;;;;10.87;9.77;;;;;;;;;;5037115;28;20206;-76
2023/03/31 06:25:15;;;;;;;9.03;6.27;;;;;;;;;;5043591;28;20185;-76
2023/03/31 06:27:40;;;;;;;7.60;5.63;;;;;;;;;;5036195;28;20192;-76
2023/03/31 06:30:05;;;;;;;7.53;6.73;;;;;;;;;;5072359;28;20206;-76
2023/03/31 06:32:31;;;;;;;8.27;7.33;;;;;;;;;;5046282;28;20182;-76
2023/03/31 06:34:56;;;;;;;6.47;4.97;;;;;;;;;;5050213;28;20163;-76
2023/03/31 06:37:21;;;;;;;8.70;6.53;;;;;;;;;;5040925;28;20184;-76
2023/03/31 06:39:47;;;;;;;11.17;10.07;;;;;;;;;;5056676;28;20186;-76
2023/03/31 06:42:13;;;;;;;8.23;7.37;;;;;;;;;;5042338;28;20224;-75
2023/03/31 06:44:39;;;;;;;4.83;4.43;;;;;;;;;;5070359;28;20171;-75
2023/03/31 06:47:04;;;;;;;3.60;2.93;;;;;;;;;;5054416;28;20171;-77
2023/03/31 06:49:29;;;;;;;2.10;1.80;;;;;;;;;;5042243;28;20216;-76
2023/03/31 06:51:55;;;;;;;2.87;2.40;;;;;;;;;;5056648;28;20204;-76
2023/03/31 06:54:20;;;;;;;2.63;2.13;;;;;;;;;;5045081;28;20218;-76
2023/03/31 06:56:45;;;;;;;1.90;1.80;;;;;;;;;;5052322;28;20218;-76
2023/03/31 06:59:10;;;;;;;1.93;1.80;;;;;;;;;;5045575;28;20224;-76
2023/03/31 07:01:37;;;;;;;2.77;1.60;;;;;;;;;;5050737;28;20245;-76
2023/03/31 07:04:03;;;;;;;2.23;1.50;;;;;;;;;;5042300;28;20174;-76
2023/03/31 07:06:29;;;;;;;2.23;1.73;;;;;;;;;;5076767;28;20182;-76
2023/03/31 07:08:54;;;;;;;4.30;3.90;;;;;;;;;;5037228;28;20179;-76
2023/03/31 07:11:19;;;;;;;4.47;2.63;;;;;;;;;;5040992;28;20197;-76
2023/03/31 07:13:45;;;;;;;1.97;1.83;;;;;;;;;;5046988;28;20179;-76
2023/03/31 07:16:12;;;;;;;2.77;1.63;;;;;;;;;;5074154;28;20182;-76
2023/03/31 07:18:40;;;;;;;2.40;2.17;;;;;;;;;;5078576;28;20216;-76
2023/03/31 07:21:06;;;;;;;5.43;1.93;;;;;;;;;;5056770;28;20268;-76
2023/03/31 07:23:31;;;;;;;2.80;1.70;;;;;;;;;;5064588;28;20199;-76
2023/03/31 07:26:01;;;;;;;2.87;2.03;;;;;;;;;;5073155;28;20175;-76
2023/03/31 07:28:26;;;;;;;2.20;1.80;;;;;;;;;;5048384;28;20173;-76
2023/03/31 07:30:51;;;;;;;2.07;1.87;;;;;;;;;;5053413;28;20256;-76
2023/03/31 07:33:17;;;;;;;2.33;1.70;;;;;;;;;;5069010;28;20175;-76
2023/03/31 07:35:42;;;;;;;1.90;1.70;;;;;;;;;;5055935;28;20185;-76
2023/03/31 07:38:10;;;;;;;2.33;1.53;;;;;;;;;;5040565;28;20171;-76
2023/03/31 07:40:36;;;;;;;3.53;1.90;;;;;;;;;;5047173;28;20175;-76
2023/03/31 07:43:02;;;;;;;2.77;1.80;;;;;;;;;;5051952;28;20226;-76
2023/03/31 07:45:27;;;;;;;3.60;1.80;;;;;;;;;;5050575;28;20185;-76
2023/03/31 07:47:52;;;;;;;8.27;1.83;;;;;;;;;;5048055;28;20297;-76
2023/03/31 07:50:20;;;;;;;2.73;1.60;;;;;;;;;;5049551;28;20202;-76
2023/03/31 07:52:46;;;;;;;3.90;2.03;;;;;;;;;;5081609;28;20178;-76
2023/03/31 07:55:11;;;;;;;11.00;6.97;;;;;;;;;;5044849;28;20194;-76
2023/03/31 07:57:37;;;;;;;7.20;4.43;;;;;;;;;;5060586;28;20169;-76
2023/03/31 08:00:07;;;;;;;16.23;8.67;;;;;;;;;;5044984;28;20184;-76
2023/03/31 08:02:33;;;;;;;17.27;8.17;;;;;;;;;;5050232;28;20505;-76
2023/03/31 08:04:58;;;;;;;10.10;4.13;;;;;;;;;;5046162;28;20198;-76
2023/03/31 08:07:24;;;;;;;8.80;3.17;;;;;;;;;;5038925;28;20175;-76
2023/03/31 08:09:50;;;;;;;12.70;5.80;;;;;;;;;;5038999;28;20206;-76
2023/03/31 08:12:15;;;;;;;10.23;4.40;;;;;;;;;;5075778;28;20181;-76
2023/03/31 08:14:40;;;;;;;6.50;3.60;;;;;;;;;;5036950;28;20178;-76
2023/03/31 08:17:06;;;;;;;8.83;3.77;;;;;;;;;;5044665;28;20176;-76
2023/03/31 08:19:31;;;;;;;10.37;2.60;;;;;;;;;;5047525;28;20293;-77
2023/03/31 08:21:56;;;;;;;8.90;3.10;;;;;;;;;;5051999;28;20184;-76
2023/03/31 08:24:21;;;;;;;7.40;2.13;;;;;;;;;;5046118;28;20171;-76
2023/03/31 08:26:46;;;;;;;3.57;2.53;;;;;;;;;;5052645;28;20173;-76
2023/03/31 08:29:12;;;;;;;3.37;2.00;;;;;;;;;;5049595;28;20171;-76
2023/03/31 08:31:37;;;;;;;6.17;2.20;;;;;;;;;;5061618;28;20198;-76
2023/03/31 08:34:03;;;;;;;5.83;2.00;;;;;;;;;;5041986;28;20190;-76
2023/03/31 08:36:28;;;;;;;6.37;2.43;;;;;;;;;;5050894;28;20182;-77
2023/03/31 08:38:54;;;;;;;3.63;2.10;;;;;;;;;;5060484;28;20207;-76
2023/03/31 08:41:48;;;;;;;4.47;2.30;;;;;;;;;;5040042;28;20221;-77
2023/03/31 08:44:17;;;;;;;4.37;2.30;;;;;;;;;;5046353;28;20218;-76
2023/03/31 08:46:42;;;;;;;6.47;1.90;;;;;;;;;;5072412;28;20179;-76
2023/03/31 08:49:11;;;;;;;4.60;2.13;;;;;;;;;;5046505;28;20222;-76
2023/03/31 08:51:38;;;;;;;5.37;2.00;;;;;;;;;;5072908;28;20221;-76
2023/03/31 08:54:06;;;;;;;2.07;1.53;;;;;;;;;;5071302;28;20171;-76
2023/03/31 08:56:36;;;;;;;5.07;2.57;;;;;;;;;;5046263;28;20185;-76
2023/03/31 08:59:02;;;;;;;2.30;1.70;;;;;;;;;;5081338;28;20172;-76
2023/03/31 09:01:46;;;;;;;2.83;1.63;;;;;;;;;;5070938;28;20265;-77
2023/03/31 09:04:30;;;;;;;2.70;1.87;;;;;;;;;;5068459;28;20199;-77
2023/03/31 09:07:01;;;;;;;7.20;1.80;;;;;;;;;;5040536;28;20178;-77
2023/03/31 09:09:32;;;;;;;3.07;2.13;;;;;;;;;;5073902;28;20183;-77
2023/03/31 09:12:01;;;;;;;4.13;2.50;;;;;;;;;;5074308;28;20175;-77
2023/03/31 09:14:30;;;;;;;5.33;2.10;;;;;;;;;;5045579;28;20254;-77
2023/03/31 09:16:58;;;;;;;7.93;2.80;;;;;;;;;;5046661;28;20177;-77
2023/03/31 09:19:34;;;;;;;6.40;2.10;;;;;;;;;;5080121;28;20185;-77
2023/03/31 09:22:00;;;;;;;4.80;2.20;;;;;;;;;;5080967;28;20228;-77
2023/03/31 09:24:27;;;;;;;8.07;2.03;;;;;;;;;;5040761;28;20198;-77
2023/03/31 09:26:57;;;;;;;5.80;2.10;;;;;;;;;;5042587;28;20198;-76
2023/03/31 09:29:35;;;;;;;4.80;2.07;;;;;;;;;;5074602;28;20184;-77
2023/03/31 09:32:05;;;;;;;9.40;3.07;;;;;;;;;;5046486;28;20181;-77
2023/03/31 09:34:33;;;;;;;4.40;1.87;;;;;;;;;;5038496;28;20173;-77
2023/03/31 09:36:58;;;;;;;6.03;2.27;;;;;;;;;;5047965;28;20199;-77
2023/03/31 09:39:23;;;;;;;5.23;2.00;;;;;;;;;;5047520;28;20199;-77
2023/03/31 09:41:50;;;;;;;4.53;1.80;;;;;;;;;;5044341;28;20175;-77
2023/03/31 09:44:23;;;;;;;5.20;1.77;;;;;;;;;;5042074;28;20264;-77
2023/03/31 09:46:50;;;;;;;5.43;2.40;;;;;;;;;;5043589;28;20226;-77
2023/03/31 09:49:18;;;;;;;5.53;2.30;;;;;;;;;;5040128;28;20224;-77
2023/03/31 09:51:46;;;;;;;4.97;2.43;;;;;;;;;;5069702;28;20195;-77
2023/03/31 09:54:46;;;;;;;5.80;2.10;;;;;;;;;;5043365;28;20187;-77
2023/03/31 09:57:22;;;;;;;4.23;1.90;;;;;;;;;;4991791;28;20183;-77
2023/03/31 09:59:49;;;;;;;3.50;2.23;;;;;;;;;;4972756;28;20205;-77
2023/03/31 10:02:35;;;;;;;4.13;1.77;;;;;;;;;;4987804;28;20248;-77
2023/03/31 10:05:00;;;;;;;2.80;1.90;;;;;;;;;;4992199;28;20191;-77
2023/03/31 10:07:26;;;;;;;5.17;1.97;;;;;;;;;;4971486;28;20255;-77
2023/03/31 10:09:54;;;;;;;5.67;1.93;;;;;;;;;;4988069;28;20233;-77
2023/03/31 10:12:23;;;;;;;8.10;2.73;;;;;;;;;;4974413;28;20231;-77
2023/03/31 10:14:49;;;;;;;4.20;2.50;;;;;;;;;;4973485;28;20179;-77
2023/03/31 10:17:15;;;;;;;4.80;2.10;;;;;;;;;;4970970;28;20187;-77
2023/03/31 10:19:47;;;;;;;3.50;2.03;;;;;;;;;;4975367;28;20331;-77
2023/03/31 10:22:25;;;;;;;2.43;1.50;;;;;;;;;;4974786;28;20272;-77
2023/03/31 10:24:51;;;;;;;4.43;1.90;;;;;;;;;;4982506;28;20195;-77
2023/03/31 10:27:20;;;;;;;5.37;1.93;;;;;;;;;;4984142;28;20314;-77
2023/03/31 10:29:45;;;;;;;3.80;2.00;;;;;;;;;;4988319;28;20282;-77
2023/03/31 10:32:24;;;;;;;4.63;1.80;;;;;;;;;;5037264;28;20187;-77
2023/03/31 10:34:50;;;;;;;5.30;1.80;;;;;;;;;;5061116;28;20177;-77
2023/03/31 10:37:17;;;;;;;8.43;2.93;;;;;;;;;;5056487;28;20184;-77
2023/03/31 10:39:45;;;;;;;5.03;2.03;;;;;;;;;;5043034;28;20185;-77
2023/03/31 10:42:17;;;;;;;5.53;2.00;;;;;;;;;;5074930;28;20205;-77
2023/03/31 10:44:42;;;;;;;4.90;1.80;;;;;;;;;;5053400;28;20196;-77
2023/03/31 10:47:14;;;;;;;6.50;2.20;;;;;;;;;;5042334;28;20180;-77
2023/03/31 10:49:40;;;;;;;9.93;2.00;;;;;;;;;;5039019;28;20193;-77
2023/03/31 10:52:15;;;;;;;1.70;1.43;;;;;;;;;;5047525;28;20181;-77
2023/03/31 10:54:45;;;;;;;5.93;2.13;;;;;;;;;;5076535;28;20252;-77
2023/03/31 10:57:10;;;;;;;3.73;1.80;;;;;;;;;;5050749;28;20181;-77
2023/03/31 10:59:45;;;;;;;3.50;2.47;;;;;;;;;;5057238;28;20315;-77
2023/03/31 11:02:14;;;;;;;3.30;2.37;;;;;;;;;;5048245;28;20180;-76
2023/03/31 11:04:45;;;;;;;1.70;1.53;;;;;;;;;;5043725;28;20232;-76
2023/03/31 11:07:13;;;;;;;0.57;0.50;;;;;;;;;;5072047;28;20263;-76
2023/03/31 11:09:38;;;;;;;1.70;1.60;;;;;;;;;;5046336;28;20171;-76
2023/03/31 11:12:13;;;;;;;0.50;0.50;;;;;;;;;;5053793;28;20186;-76
2023/03/31 11:14:41;;;;;;;1.00;1.00;;;;;;;;;;5044746;28;20186;-76
2023/03/31 11:17:22;;;;;;;1.63;0.80;;;;;;;;;;5041938;28;20171;-76
2023/03/31 11:19:56;;;;;;;1.10;0.97;;;;;;;;;;5052023;28;20182;-76
2023/03/31 11:22:36;;;;;;;1.00;0.90;;;;;;;;;;5042632;28;20203;-76
2023/03/31 11:25:20;;;;;;;1.17;0.80;;;;;;;;;;5044626;28;20181;-76
2023/03/31 11:27:49;;;;;;;1.13;0.97;;;;;;;;;;5071741;28;20182;-76
2023/03/31 11:30:27;;;;;;;2.00;1.00;;;;;;;;;;5075681;28;20199;-76
2023/03/31 11:32:53;;;;;;;2.03;1.43;;;;;;;;;;5047385;28;20179;-76
2023/03/31 11:35:23;;;;;;;3.10;0.93;;;;;;;;;;5041422;28;20166;-76
2023/03/31 11:38:10;;;;;;;1.10;0.90;;;;;;;;;;5081970;28;20183;-76
2023/03/31 11:40:58;;;;;;;0.87;0.70;;;;;;;;;;5039659;28;20189;-77
2023/03/31 11:43:27;;;;;;;1.00;0.67;;;;;;;;;;5041992;28;20202;-77
2023/03/31 11:45:57;;;;;;;1.57;0.87;;;;;;;;;;5081887;28;20189;-77
2023/03/31 11:48:42;;;;;;;0.77;0.73;;;;;;;;;;5039562;28;20238;-77
2023/03/31 11:51:14;;;;;;;1.63;1.07;;;;;;;;;;5072884;28;20275;-77
2023/03/31 11:53:42;;;;;;;1.10;1.00;;;;;;;;;;5043372;28;20207;-76
2023/03/31 11:56:08;;;;;;;1.30;1.07;;;;;;;;;;5044057;28;20176;-77
2023/03/31 11:58:40;;;;;;;1.00;0.90;;;;;;;;;;5075331;28;20182;-77
2023/03/31 12:01:09;;;;;;;4.13;1.27;;;;;;;;;;5043063;28;20193;-76
2023/03/31 12:03:42;;;;;;;1.10;0.90;;;;;;;;;;5040599;28;20184;-77
2023/03/31 12:06:16;;;;;;;3.50;1.23;;;;;;;;;;5078531;28;20183;-77
2023/03/31 12:08:46;;;;;;;6.70;1.80;;;;;;;;;;5041982;28;20204;-76
2023/03/31 12:11:14;;;;;;;3.13;1.50;;;;;;;;;;5042183;28;20214;-77
2023/03/31 12:13:39;;;;;;;2.97;1.40;;;;;;;;;;5070286;28;20178;-77
2023/03/31 12:16:16;;;;;;;4.67;1.83;;;;;;;;;;5073025;28;20175;-76
2023/03/31 12:19:01;;;;;;;7.13;1.93;;;;;;;;;;5065509;28;20204;-77
2023/03/31 12:21:28;;;;;;;3.10;1.00;;;;;;;;;;5074696;28;20191;-76
2023/03/31 12:23:53;;;;;;;2.80;1.40;;;;;;;;;;5049668;28;20178;-77
2023/03/31 12:26:24;;;;;;;6.60;2.07;;;;;;;;;;5042778;28;20183;-77
2023/03/31 12:28:52;;;;;;;1.80;1.37;;;;;;;;;;5042259;28;20173;-76
2023/03/31 12:31:20;;;;;;;2.57;1.47;;;;;;;;;;5046140;28;20201;-77
2023/03/31 12:33:48;;;;;;;4.93;3.43;;;;;;;;;;5049973;28;20300;-77
2023/03/31 12:36:23;;;;;;;5.13;1.53;;;;;;;;;;5050919;28;20184;-77
2023/03/31 12:39:09;;;;;;;2.67;1.30;;;;;;;;;;5075054;28;20270;-76
2023/03/31 12:41:43;;;;;;;3.70;1.63;;;;;;;;;;5067598;28;20239;-77
2023/03/31 12:44:27;;;;;;;7.20;3.67;;;;;;;;;;5049301;28;20176;-77
2023/03/31 12:47:02;;;;;;;3.67;1.43;;;;;;;;;;5048675;28;20193;-77
2023/03/31 12:49:34;;;;;;;3.80;1.67;;;;;;;;;;5043332;28;20229;-77
2023/03/31 12:52:02;;;;;;;5.20;2.10;;;;;;;;;;5073892;28;20172;-77
2023/03/31 12:54:37;;;;;;;3.07;1.63;;;;;;;;;;5040793;28;20185;-77
2023/03/31 12:57:06;;;;;;;4.40;1.70;;;;;;;;;;5066051;28;20203;-76
2023/03/31 12:59:54;;;;;;;2.60;1.53;;;;;;;;;;5067705;28;20168;-76
2023/03/31 13:02:25;;;;;;;2.27;1.10;;;;;;;;;;5036057;28;20221;-76
2023/03/31 13:04:50;;;;;;;2.93;1.20;;;;;;;;;;5044510;28;20167;-76
2023/03/31 13:07:18;;;;;;;2.37;0.87;;;;;;;;;;5044884;28;20178;-77
2023/03/31 13:09:45;;;;;;;3.37;1.80;;;;;;;;;;5071829;28;20179;-76
2023/03/31 13:12:15;;;;;;;1.77;1.07;;;;;;;;;;5042007;28;20183;-76
2023/03/31 13:14:42;;;;;;;2.27;1.13;;;;;;;;;;5043873;28;20168;-76
2023/03/31 13:17:26;;;;;;;2.93;1.60;;;;;;;;;;5037167;28;20175;-76
2023/03/31 13:19:52;;;;;;;2.70;0.93;;;;;;;;;;5045399;28;20336;-76
2023/03/31 13:22:27;;;;;;;1.63;0.93;;;;;;;;;;5042768;28;20178;-76
2023/03/31 13:24:52;;;;;;;1.07;0.77;;;;;;;;;;5043402;28;20178;-76
2023/03/31 13:27:32;;;;;;;1.70;0.80;;;;;;;;;;5070845;28;20324;-76
2023/03/31 13:29:57;;;;;;;4.10;2.40;;;;;;;;;;5071390;28;20213;-76
2023/03/31 13:32:24;;;;;;;3.17;1.87;;;;;;;;;;5045962;28;20167;-76
2023/03/31 13:35:09;;;;;;;6.90;3.53;;;;;;;;;;5052598;28;20208;-77
2023/03/31 13:37:53;;;;;;;0.97;0.60;;;;;;;;;;5027464;28;20193;-76
2023/03/31 13:40:18;;;;;;;0.90;0.87;;;;;;;;;;5077537;28;20273;-77
2023/03/31 13:43:01;;;;;;;0.73;0.60;;;;;;;;;;5043825;28;20297;-76
2023/03/31 13:45:39;;;;;;;4.13;2.47;;;;;;;;;;5042014;28;20183;-77
2023/03/31 13:48:22;;;;;;;2.13;1.60;;;;;;;;;;5046705;28;20328;-77
2023/03/31 13:50:54;;;;;;;3.83;2.87;;;;;;;;;;5074205;28;20210;-77
2023/03/31 13:53:22;;;;;;;2.43;1.93;;;;;;;;;;5071341;28;20232;-77
2023/03/31 13:55:53;;;;;;;2.50;1.00;;;;;;;;;;5078805;28;20269;-77
2023/03/31 13:58:27;;;;;;;10.97;6.63;;;;;;;;;;5071461;28;20175;-77
2023/03/31 14:01:21;;;;;;;8.37;6.50;;;;;;;;;;5066983;28;20175;-76
2023/03/31 14:04:02;;;;;;;2.27;1.07;;;;;;;;;;5060841;28;20212;-77
2023/03/31 14:06:33;;;;;;;4.07;2.83;;;;;;;;;;5043106;28;20179;-77
2023/03/31 14:08:58;;;;;;;8.97;3.23;;;;;;;;;;5080207;28;20200;-77
2023/03/31 14:11:28;;;;;;;6.53;3.40;;;;;;;;;;5045571;28;20207;-77
2023/03/31 14:14:11;;;;;;;1.90;1.43;;;;;;;;;;5047871;28;20184;-77
2023/03/31 14:16:38;;;;;;;4.47;2.07;;;;;;;;;;5073207;28;20192;-77
2023/03/31 14:19:24;;;;;;;3.90;1.93;;;;;;;;;;5038254;28;20176;-77
2023/03/31 14:21:55;;;;;;;2.60;1.77;;;;;;;;;;5038790;28;20179;-77
2023/03/31 14:24:27;;;;;;;3.43;1.13;;;;;;;;;;5045586;28;20951;-77
2023/03/31 14:27:18;;;;;;;3.27;2.13;;;;;;;;;;5078640;28;20185;-77
2023/03/31 14:29:56;;;;;;;1.67;1.40;;;;;;;;;;5059621;28;20205;-77
2023/03/31 14:32:27;;;;;;;2.33;1.47;;;;;;;;;;5083645;28;20179;-77
2023/03/31 14:35:12;;;;;;;3.17;2.33;;;;;;;;;;5076298;28;20182;-77
2023/03/31 14:37:38;;;;;;;1.90;1.77;;;;;;;;;;5045533;28;20179;-77
2023/03/31 14:40:03;;;;;;;2.33;1.07;;;;;;;;;;5047748;28;20229;-77
2023/03/31 14:42:36;;;;;;;3.23;1.67;;;;;;;;;;5051523;28;20241;-77
2023/03/31 14:45:02;;;;;;;2.00;1.60;;;;;;;;;;5048779;28;20178;-77
2023/03/31 14:47:28;;;;;;;1.77;1.67;;;;;;;;;;5052532;28;20342;-77
2023/03/31 14:50:00;;;;;;;2.27;1.30;;;;;;;;;;5068246;28;20226;-77
2023/03/31 14:52:28;;;;;;;4.00;2.03;;;;;;;;;;5077076;28;20190;-77
2023/03/31 14:54:53;;;;;;;3.07;1.73;;;;;;;;;;5043293;28;20255;-77
2023/03/31 14:57:20;;;;;;;1.20;0.83;;;;;;;;;;5041803;28;20200;-77